sensor_id;sensor_type;location;lat;lon;timestamp;P1;durP1;ratioP1;P2;durP2;ratioP2
66478;SDS011;53294;47.912;13.526;2024-03-22T00:00:14;5.03;;;2.38;;
66478;SDS011;53294;47.912;13.526;2024-03-22T00:02:40;6.07;;;2.38;;
66478;SDS011;53294;47.912;13.526;2024-03-22T00:05:05;4.82;;;2.22;;
66478;SDS011;53294;47.912;13.526;2024-03-22T00:07:31;3.65;;;2.10;;
66478;SDS011;53294;47.912;13.526;2024-03-22T00:09:57;3.80;;;1.77;;
66478;SDS011;53294;47.912;13.526;2024-03-22T00:12:23;3.33;;;1.70;;
66478;SDS011;53294;47.912;13.526;2024-03-22T00:14:48;4.20;;;2.15;;
66478;SDS011;53294;47.912;13.526;2024-03-22T00:17:16;3.08;;;1.52;;
66478;SDS011;53294;47.912;13.526;2024-03-22T00:19:42;3.55;;;1.70;;
66478;SDS011;53294;47.912;13.526;2024-03-22T00:22:08;5.15;;;1.83;;
66478;SDS011;53294;47.912;13.526;2024-03-22T00:24:34;3.30;;;1.55;;
66478;SDS011;53294;47.912;13.526;2024-03-22T00:27:00;4.55;;;1.80;;
66478;SDS011;53294;47.912;13.526;2024-03-22T00:29:26;5.32;;;2.05;;
66478;SDS011;53294;47.912;13.526;2024-03-22T00:31:52;4.03;;;1.50;;
66478;SDS011;53294;47.912;13.526;2024-03-22T00:34:17;4.45;;;2.38;;
66478;SDS011;53294;47.912;13.526;2024-03-22T00:36:44;3.28;;;1.73;;
66478;SDS011;53294;47.912;13.526;2024-03-22T00:39:11;5.78;;;2.42;;
66478;SDS011;53294;47.912;13.526;2024-03-22T00:41:36;3.30;;;1.77;;
66478;SDS011;53294;47.912;13.526;2024-03-22T00:44:02;4.88;;;2.15;;
66478;SDS011;53294;47.912;13.526;2024-03-22T00:46:28;2.92;;;1.55;;
66478;SDS011;53294;47.912;13.526;2024-03-22T00:48:53;3.65;;;1.63;;
66478;SDS011;53294;47.912;13.526;2024-03-22T00:51:19;2.75;;;1.77;;
66478;SDS011;53294;47.912;13.526;2024-03-22T00:53:45;4.15;;;1.70;;
66478;SDS011;53294;47.912;13.526;2024-03-22T00:56:10;5.50;;;1.67;;
66478;SDS011;53294;47.912;13.526;2024-03-22T00:58:36;2.63;;;1.25;;
66478;SDS011;53294;47.912;13.526;2024-03-22T01:01:02;4.15;;;1.98;;
66478;SDS011;53294;47.912;13.526;2024-03-22T01:03:27;4.25;;;1.73;;
66478;SDS011;53294;47.912;13.526;2024-03-22T01:05:53;2.42;;;1.45;;
66478;SDS011;53294;47.912;13.526;2024-03-22T01:08:19;5.90;;;2.30;;
66478;SDS011;53294;47.912;13.526;2024-03-22T01:10:45;3.45;;;1.88;;
66478;SDS011;53294;47.912;13.526;2024-03-22T01:13:11;6.22;;;2.15;;
66478;SDS011;53294;47.912;13.526;2024-03-22T01:15:36;3.88;;;1.85;;
66478;SDS011;53294;47.912;13.526;2024-03-22T01:18:02;3.97;;;1.85;;
66478;SDS011;53294;47.912;13.526;2024-03-22T01:20:28;5.55;;;2.17;;
66478;SDS011;53294;47.912;13.526;2024-03-22T01:22:54;4.03;;;1.77;;
66478;SDS011;53294;47.912;13.526;2024-03-22T01:25:20;4.10;;;1.60;;
66478;SDS011;53294;47.912;13.526;2024-03-22T01:27:45;3.40;;;1.27;;
66478;SDS011;53294;47.912;13.526;2024-03-22T01:30:11;3.83;;;1.77;;
66478;SDS011;53294;47.912;13.526;2024-03-22T01:32:37;5.15;;;1.73;;
66478;SDS011;53294;47.912;13.526;2024-03-22T01:35:03;3.10;;;1.25;;
66478;SDS011;53294;47.912;13.526;2024-03-22T01:37:29;3.58;;;2.13;;
66478;SDS011;53294;47.912;13.526;2024-03-22T01:39:55;4.15;;;1.48;;
66478;SDS011;53294;47.912;13.526;2024-03-22T01:42:20;4.03;;;1.95;;
66478;SDS011;53294;47.912;13.526;2024-03-22T01:44:46;3.65;;;1.05;;
66478;SDS011;53294;47.912;13.526;2024-03-22T01:47:14;3.83;;;1.95;;
66478;SDS011;53294;47.912;13.526;2024-03-22T01:49:40;4.30;;;2.03;;
66478;SDS011;53294;47.912;13.526;2024-03-22T01:52:06;5.03;;;1.60;;
66478;SDS011;53294;47.912;13.526;2024-03-22T01:54:31;6.28;;;1.80;;
66478;SDS011;53294;47.912;13.526;2024-03-22T01:56:57;2.35;;;1.38;;
66478;SDS011;53294;47.912;13.526;2024-03-22T01:59:24;4.43;;;1.90;;
66478;SDS011;53294;47.912;13.526;2024-03-22T02:01:51;6.28;;;1.92;;
66478;SDS011;53294;47.912;13.526;2024-03-22T02:04:17;4.85;;;2.00;;
66478;SDS011;53294;47.912;13.526;2024-03-22T02:06:43;7.18;;;1.98;;
66478;SDS011;53294;47.912;13.526;2024-03-22T02:09:08;3.70;;;1.77;;
66478;SDS011;53294;47.912;13.526;2024-03-22T02:11:37;4.78;;;1.85;;
66478;SDS011;53294;47.912;13.526;2024-03-22T02:14:04;4.95;;;2.50;;
66478;SDS011;53294;47.912;13.526;2024-03-22T02:16:30;4.45;;;1.80;;
66478;SDS011;53294;47.912;13.526;2024-03-22T02:18:56;4.78;;;2.17;;
66478;SDS011;53294;47.912;13.526;2024-03-22T02:21:21;4.70;;;2.05;;
66478;SDS011;53294;47.912;13.526;2024-03-22T02:23:47;5.25;;;1.85;;
66478;SDS011;53294;47.912;13.526;2024-03-22T02:26:13;4.25;;;1.40;;
66478;SDS011;53294;47.912;13.526;2024-03-22T02:28:38;3.50;;;1.95;;
66478;SDS011;53294;47.912;13.526;2024-03-22T02:31:04;2.67;;;1.40;;
66478;SDS011;53294;47.912;13.526;2024-03-22T02:33:30;4.63;;;1.83;;
66478;SDS011;53294;47.912;13.526;2024-03-22T02:35:56;3.33;;;1.73;;
66478;SDS011;53294;47.912;13.526;2024-03-22T02:38:22;2.63;;;1.40;;
66478;SDS011;53294;47.912;13.526;2024-03-22T02:40:50;4.47;;;1.75;;
66478;SDS011;53294;47.912;13.526;2024-03-22T02:43:17;3.17;;;1.20;;
66478;SDS011;53294;47.912;13.526;2024-03-22T02:45:44;5.45;;;2.42;;
66478;SDS011;53294;47.912;13.526;2024-03-22T02:48:11;2.85;;;1.42;;
66478;SDS011;53294;47.912;13.526;2024-03-22T02:50:37;3.83;;;1.95;;
66478;SDS011;53294;47.912;13.526;2024-03-22T02:53:03;2.50;;;1.67;;
66478;SDS011;53294;47.912;13.526;2024-03-22T02:55:30;4.93;;;1.75;;
66478;SDS011;53294;47.912;13.526;2024-03-22T02:57:56;3.70;;;1.92;;
66478;SDS011;53294;47.912;13.526;2024-03-22T03:00:22;4.50;;;2.10;;
66478;SDS011;53294;47.912;13.526;2024-03-22T03:02:48;4.78;;;1.98;;
66478;SDS011;53294;47.912;13.526;2024-03-22T03:05:15;7.05;;;2.33;;
66478;SDS011;53294;47.912;13.526;2024-03-22T03:07:41;4.60;;;2.38;;
66478;SDS011;53294;47.912;13.526;2024-03-22T03:10:07;5.45;;;2.05;;
66478;SDS011;53294;47.912;13.526;2024-03-22T03:12:33;3.45;;;1.73;;
66478;SDS011;53294;47.912;13.526;2024-03-22T03:14:59;4.88;;;2.10;;
66478;SDS011;53294;47.912;13.526;2024-03-22T03:17:24;9.15;;;2.55;;
66478;SDS011;53294;47.912;13.526;2024-03-22T03:19:50;5.90;;;2.80;;
66478;SDS011;53294;47.912;13.526;2024-03-22T03:22:16;7.15;;;3.13;;
66478;SDS011;53294;47.912;13.526;2024-03-22T03:24:41;4.55;;;2.00;;
66478;SDS011;53294;47.912;13.526;2024-03-22T03:27:07;7.07;;;2.38;;
66478;SDS011;53294;47.912;13.526;2024-03-22T03:29:33;9.48;;;2.22;;
66478;SDS011;53294;47.912;13.526;2024-03-22T03:31:58;5.82;;;2.63;;
66478;SDS011;53294;47.912;13.526;2024-03-22T03:34:24;5.18;;;2.58;;
66478;SDS011;53294;47.912;13.526;2024-03-22T03:36:50;6.50;;;2.63;;
66478;SDS011;53294;47.912;13.526;2024-03-22T03:39:16;5.75;;;2.22;;
66478;SDS011;53294;47.912;13.526;2024-03-22T03:41:41;8.52;;;4.00;;
66478;SDS011;53294;47.912;13.526;2024-03-22T03:44:07;4.50;;;2.35;;
66478;SDS011;53294;47.912;13.526;2024-03-22T03:46:33;5.60;;;2.60;;
66478;SDS011;53294;47.912;13.526;2024-03-22T03:48:58;7.03;;;2.92;;
66478;SDS011;53294;47.912;13.526;2024-03-22T03:51:24;7.07;;;3.00;;
66478;SDS011;53294;47.912;13.526;2024-03-22T03:53:50;6.70;;;2.55;;
66478;SDS011;53294;47.912;13.526;2024-03-22T03:56:15;5.13;;;2.50;;
66478;SDS011;53294;47.912;13.526;2024-03-22T03:58:41;5.88;;;2.45;;
66478;SDS011;53294;47.912;13.526;2024-03-22T04:01:10;7.68;;;3.72;;
66478;SDS011;53294;47.912;13.526;2024-03-22T04:03:35;5.93;;;2.92;;
66478;SDS011;53294;47.912;13.526;2024-03-22T04:06:01;6.38;;;2.85;;
66478;SDS011;53294;47.912;13.526;2024-03-22T04:08:28;5.22;;;2.28;;
66478;SDS011;53294;47.912;13.526;2024-03-22T04:10:54;6.47;;;2.45;;
66478;SDS011;53294;47.912;13.526;2024-03-22T04:13:23;7.15;;;2.95;;
66478;SDS011;53294;47.912;13.526;2024-03-22T04:15:50;9.05;;;2.63;;
66478;SDS011;53294;47.912;13.526;2024-03-22T04:18:16;5.80;;;3.13;;
66478;SDS011;53294;47.912;13.526;2024-03-22T04:20:42;7.85;;;3.60;;
66478;SDS011;53294;47.912;13.526;2024-03-22T04:23:09;5.80;;;2.33;;
66478;SDS011;53294;47.912;13.526;2024-03-22T04:25:35;8.07;;;2.22;;
66478;SDS011;53294;47.912;13.526;2024-03-22T04:28:01;4.20;;;2.13;;
66478;SDS011;53294;47.912;13.526;2024-03-22T04:30:26;6.35;;;2.85;;
66478;SDS011;53294;47.912;13.526;2024-03-22T04:32:52;8.32;;;2.42;;
66478;SDS011;53294;47.912;13.526;2024-03-22T04:35:18;5.45;;;2.83;;
66478;SDS011;53294;47.912;13.526;2024-03-22T04:37:43;4.25;;;2.13;;
66478;SDS011;53294;47.912;13.526;2024-03-22T04:40:09;6.40;;;2.00;;
66478;SDS011;53294;47.912;13.526;2024-03-22T04:42:35;7.70;;;2.65;;
66478;SDS011;53294;47.912;13.526;2024-03-22T04:45:01;5.97;;;2.92;;
66478;SDS011;53294;47.912;13.526;2024-03-22T04:47:27;5.68;;;2.38;;
66478;SDS011;53294;47.912;13.526;2024-03-22T04:49:52;5.68;;;2.45;;
66478;SDS011;53294;47.912;13.526;2024-03-22T04:52:18;7.55;;;3.00;;
66478;SDS011;53294;47.912;13.526;2024-03-22T04:54:44;6.55;;;2.42;;
66478;SDS011;53294;47.912;13.526;2024-03-22T04:57:10;5.43;;;2.45;;
66478;SDS011;53294;47.912;13.526;2024-03-22T04:59:36;5.00;;;2.20;;
66478;SDS011;53294;47.912;13.526;2024-03-22T05:02:01;7.07;;;2.78;;
66478;SDS011;53294;47.912;13.526;2024-03-22T05:04:27;5.78;;;3.45;;
66478;SDS011;53294;47.912;13.526;2024-03-22T05:06:53;6.15;;;2.55;;
66478;SDS011;53294;47.912;13.526;2024-03-22T05:09:18;6.20;;;3.13;;
66478;SDS011;53294;47.912;13.526;2024-03-22T05:11:44;6.28;;;2.10;;
66478;SDS011;53294;47.912;13.526;2024-03-22T05:14:15;8.38;;;2.35;;
66478;SDS011;53294;47.912;13.526;2024-03-22T05:16:40;4.95;;;2.28;;
66478;SDS011;53294;47.912;13.526;2024-03-22T05:19:06;3.40;;;1.83;;
66478;SDS011;53294;47.912;13.526;2024-03-22T05:21:32;5.88;;;2.33;;
66478;SDS011;53294;47.912;13.526;2024-03-22T05:23:57;5.25;;;2.15;;
66478;SDS011;53294;47.912;13.526;2024-03-22T05:26:23;7.95;;;2.42;;
66478;SDS011;53294;47.912;13.526;2024-03-22T05:28:49;3.58;;;2.25;;
66478;SDS011;53294;47.912;13.526;2024-03-22T05:31:14;4.20;;;2.00;;
66478;SDS011;53294;47.912;13.526;2024-03-22T05:33:40;8.25;;;2.80;;
66478;SDS011;53294;47.912;13.526;2024-03-22T05:36:06;5.65;;;2.38;;
66478;SDS011;53294;47.912;13.526;2024-03-22T05:38:32;5.55;;;2.78;;
66478;SDS011;53294;47.912;13.526;2024-03-22T05:40:58;6.80;;;2.35;;
66478;SDS011;53294;47.912;13.526;2024-03-22T05:43:24;8.63;;;2.75;;
66478;SDS011;53294;47.912;13.526;2024-03-22T05:45:49;5.63;;;2.50;;
66478;SDS011;53294;47.912;13.526;2024-03-22T05:48:15;3.83;;;2.15;;
66478;SDS011;53294;47.912;13.526;2024-03-22T05:50:41;5.85;;;1.85;;
66478;SDS011;53294;47.912;13.526;2024-03-22T05:53:06;5.85;;;2.45;;
66478;SDS011;53294;47.912;13.526;2024-03-22T05:55:32;7.35;;;2.97;;
66478;SDS011;53294;47.912;13.526;2024-03-22T05:57:58;6.82;;;3.08;;
66478;SDS011;53294;47.912;13.526;2024-03-22T06:00:24;3.83;;;2.22;;
66478;SDS011;53294;47.912;13.526;2024-03-22T06:02:50;7.78;;;3.10;;
66478;SDS011;53294;47.912;13.526;2024-03-22T06:05:15;4.32;;;2.28;;
66478;SDS011;53294;47.912;13.526;2024-03-22T06:07:42;7.78;;;3.22;;
66478;SDS011;53294;47.912;13.526;2024-03-22T06:10:09;10.52;;;3.65;;
66478;SDS011;53294;47.912;13.526;2024-03-22T06:12:37;3.58;;;2.15;;
66478;SDS011;53294;47.912;13.526;2024-03-22T06:15:03;5.82;;;2.72;;
66478;SDS011;53294;47.912;13.526;2024-03-22T06:17:34;6.13;;;2.58;;
66478;SDS011;53294;47.912;13.526;2024-03-22T06:20:00;5.68;;;2.88;;
66478;SDS011;53294;47.912;13.526;2024-03-22T06:22:26;7.88;;;3.03;;
66478;SDS011;53294;47.912;13.526;2024-03-22T06:24:52;5.75;;;2.85;;
66478;SDS011;53294;47.912;13.526;2024-03-22T06:27:18;5.38;;;2.70;;
66478;SDS011;53294;47.912;13.526;2024-03-22T06:29:44;6.80;;;2.95;;
66478;SDS011;53294;47.912;13.526;2024-03-22T06:32:10;4.82;;;2.33;;
66478;SDS011;53294;47.912;13.526;2024-03-22T06:34:36;7.82;;;2.83;;
66478;SDS011;53294;47.912;13.526;2024-03-22T06:37:02;7.60;;;2.78;;
66478;SDS011;53294;47.912;13.526;2024-03-22T06:39:27;7.35;;;3.05;;
66478;SDS011;53294;47.912;13.526;2024-03-22T06:41:53;9.40;;;3.50;;
66478;SDS011;53294;47.912;13.526;2024-03-22T06:44:19;6.93;;;3.30;;
66478;SDS011;53294;47.912;13.526;2024-03-22T06:46:45;7.25;;;2.42;;
66478;SDS011;53294;47.912;13.526;2024-03-22T06:49:10;5.45;;;3.15;;
66478;SDS011;53294;47.912;13.526;2024-03-22T06:51:36;6.82;;;2.22;;
66478;SDS011;53294;47.912;13.526;2024-03-22T06:54:02;11.88;;;4.20;;
66478;SDS011;53294;47.912;13.526;2024-03-22T06:56:27;7.35;;;2.90;;
66478;SDS011;53294;47.912;13.526;2024-03-22T06:58:53;6.05;;;3.28;;
66478;SDS011;53294;47.912;13.526;2024-03-22T07:01:19;6.97;;;2.83;;
66478;SDS011;53294;47.912;13.526;2024-03-22T07:03:46;8.15;;;2.50;;
66478;SDS011;53294;47.912;13.526;2024-03-22T07:06:13;5.60;;;2.65;;
66478;SDS011;53294;47.912;13.526;2024-03-22T07:08:39;6.13;;;2.72;;
66478;SDS011;53294;47.912;13.526;2024-03-22T07:11:05;7.43;;;2.90;;
66478;SDS011;53294;47.912;13.526;2024-03-22T07:13:31;5.75;;;2.50;;
66478;SDS011;53294;47.912;13.526;2024-03-22T07:15:57;5.80;;;2.95;;
66478;SDS011;53294;47.912;13.526;2024-03-22T07:18:23;6.57;;;2.85;;
66478;SDS011;53294;47.912;13.526;2024-03-22T07:20:49;8.48;;;3.10;;
66478;SDS011;53294;47.912;13.526;2024-03-22T07:23:15;4.35;;;2.50;;
66478;SDS011;53294;47.912;13.526;2024-03-22T07:25:40;5.90;;;2.60;;
66478;SDS011;53294;47.912;13.526;2024-03-22T07:28:11;3.75;;;1.60;;
66478;SDS011;53294;47.912;13.526;2024-03-22T07:30:37;3.08;;;1.42;;
66478;SDS011;53294;47.912;13.526;2024-03-22T07:33:03;6.22;;;1.90;;
66478;SDS011;53294;47.912;13.526;2024-03-22T07:35:29;4.03;;;1.77;;
66478;SDS011;53294;47.912;13.526;2024-03-22T07:37:55;4.97;;;1.92;;
66478;SDS011;53294;47.912;13.526;2024-03-22T07:42:47;4.95;;;1.35;;
66478;SDS011;53294;47.912;13.526;2024-03-22T07:45:13;2.75;;;1.70;;
66478;SDS011;53294;47.912;13.526;2024-03-22T07:47:39;4.20;;;1.77;;
66478;SDS011;53294;47.912;13.526;2024-03-22T07:50:07;1.83;;;1.30;;
66478;SDS011;53294;47.912;13.526;2024-03-22T07:52:34;4.05;;;1.92;;
66478;SDS011;53294;47.912;13.526;2024-03-22T07:54:59;3.38;;;1.58;;
66478;SDS011;53294;47.912;13.526;2024-03-22T07:57:28;2.78;;;1.38;;
66478;SDS011;53294;47.912;13.526;2024-03-22T07:59:56;4.07;;;1.85;;
66478;SDS011;53294;47.912;13.526;2024-03-22T08:02:22;3.22;;;1.48;;
66478;SDS011;53294;47.912;13.526;2024-03-22T08:04:49;4.40;;;1.98;;
66478;SDS011;53294;47.912;13.526;2024-03-22T08:07:14;4.32;;;1.88;;
66478;SDS011;53294;47.912;13.526;2024-03-22T08:09:40;3.40;;;1.73;;
66478;SDS011;53294;47.912;13.526;2024-03-22T08:12:06;3.70;;;2.13;;
66478;SDS011;53294;47.912;13.526;2024-03-22T08:14:33;4.97;;;1.85;;
66478;SDS011;53294;47.912;13.526;2024-03-22T08:16:58;4.22;;;1.73;;
66478;SDS011;53294;47.912;13.526;2024-03-22T08:19:24;8.00;;;3.15;;
66478;SDS011;53294;47.912;13.526;2024-03-22T08:21:50;4.25;;;2.47;;
66478;SDS011;53294;47.912;13.526;2024-03-22T08:24:15;4.85;;;1.92;;
66478;SDS011;53294;47.912;13.526;2024-03-22T08:26:42;6.93;;;2.50;;
66478;SDS011;53294;47.912;13.526;2024-03-22T08:29:10;5.00;;;1.83;;
66478;SDS011;53294;47.912;13.526;2024-03-22T08:31:36;5.00;;;2.05;;
66478;SDS011;53294;47.912;13.526;2024-03-22T08:34:02;5.82;;;2.22;;
66478;SDS011;53294;47.912;13.526;2024-03-22T08:36:30;4.47;;;2.20;;
66478;SDS011;53294;47.912;13.526;2024-03-22T08:38:56;6.97;;;1.80;;
66478;SDS011;53294;47.912;13.526;2024-03-22T08:41:22;7.20;;;2.33;;
66478;SDS011;53294;47.912;13.526;2024-03-22T08:43:48;3.05;;;1.77;;
66478;SDS011;53294;47.912;13.526;2024-03-22T08:46:14;3.70;;;2.20;;
66478;SDS011;53294;47.912;13.526;2024-03-22T08:48:39;5.25;;;2.65;;
66478;SDS011;53294;47.912;13.526;2024-03-22T08:51:05;6.18;;;2.33;;
66478;SDS011;53294;47.912;13.526;2024-03-22T08:53:31;3.35;;;1.50;;
66478;SDS011;53294;47.912;13.526;2024-03-22T08:55:56;3.78;;;1.40;;
66478;SDS011;53294;47.912;13.526;2024-03-22T08:58:22;4.43;;;2.03;;
66478;SDS011;53294;47.912;13.526;2024-03-22T09:00:48;3.65;;;1.70;;
66478;SDS011;53294;47.912;13.526;2024-03-22T09:03:13;3.22;;;1.88;;
66478;SDS011;53294;47.912;13.526;2024-03-22T09:05:40;5.90;;;1.98;;
66478;SDS011;53294;47.912;13.526;2024-03-22T09:08:06;5.32;;;2.50;;
66478;SDS011;53294;47.912;13.526;2024-03-22T09:10:32;4.00;;;2.20;;
66478;SDS011;53294;47.912;13.526;2024-03-22T09:12:58;4.57;;;1.85;;
66478;SDS011;53294;47.912;13.526;2024-03-22T09:15:23;5.00;;;1.80;;
66478;SDS011;53294;47.912;13.526;2024-03-22T09:17:51;3.65;;;1.48;;
66478;SDS011;53294;47.912;13.526;2024-03-22T09:20:18;4.18;;;1.50;;
66478;SDS011;53294;47.912;13.526;2024-03-22T09:22:43;4.50;;;1.67;;
66478;SDS011;53294;47.912;13.526;2024-03-22T09:25:09;3.45;;;1.80;;
66478;SDS011;53294;47.912;13.526;2024-03-22T09:27:35;3.17;;;1.60;;
66478;SDS011;53294;47.912;13.526;2024-03-22T09:30:01;4.57;;;1.40;;
66478;SDS011;53294;47.912;13.526;2024-03-22T09:32:29;3.53;;;1.55;;
66478;SDS011;53294;47.912;13.526;2024-03-22T09:34:55;2.70;;;1.35;;
66478;SDS011;53294;47.912;13.526;2024-03-22T09:37:21;4.85;;;2.13;;
66478;SDS011;53294;47.912;13.526;2024-03-22T09:39:47;3.75;;;1.48;;
66478;SDS011;53294;47.912;13.526;2024-03-22T09:42:13;4.78;;;1.95;;
66478;SDS011;53294;47.912;13.526;2024-03-22T09:44:44;3.38;;;1.58;;
66478;SDS011;53294;47.912;13.526;2024-03-22T09:47:14;2.83;;;1.48;;
66478;SDS011;53294;47.912;13.526;2024-03-22T09:49:40;3.20;;;1.48;;
66478;SDS011;53294;47.912;13.526;2024-03-22T09:52:11;2.13;;;1.08;;
66478;SDS011;53294;47.912;13.526;2024-03-22T09:54:44;3.47;;;1.40;;
66478;SDS011;53294;47.912;13.526;2024-03-22T09:57:11;4.72;;;1.83;;
66478;SDS011;53294;47.912;13.526;2024-03-22T09:59:44;3.92;;;1.92;;
66478;SDS011;53294;47.912;13.526;2024-03-22T10:02:11;3.92;;;2.38;;
66478;SDS011;53294;47.912;13.526;2024-03-22T10:04:38;3.50;;;1.80;;
66478;SDS011;53294;47.912;13.526;2024-03-22T10:07:07;4.32;;;2.05;;
66478;SDS011;53294;47.912;13.526;2024-03-22T10:09:36;3.13;;;1.58;;
66478;SDS011;53294;47.912;13.526;2024-03-22T10:12:02;5.15;;;1.70;;
66478;SDS011;53294;47.912;13.526;2024-03-22T10:16:56;3.25;;;2.00;;
66478;SDS011;53294;47.912;13.526;2024-03-22T10:19:22;3.42;;;1.80;;
66478;SDS011;53294;47.912;13.526;2024-03-22T10:24:26;1.83;;;1.20;;
66478;SDS011;53294;47.912;13.526;2024-03-22T10:26:53;3.00;;;1.42;;
66478;SDS011;53294;47.912;13.526;2024-03-22T10:29:19;4.07;;;1.35;;
66478;SDS011;53294;47.912;13.526;2024-03-22T10:31:47;2.50;;;1.60;;
66478;SDS011;53294;47.912;13.526;2024-03-22T10:34:13;2.13;;;1.20;;
66478;SDS011;53294;47.912;13.526;2024-03-22T10:36:40;2.30;;;1.20;;
66478;SDS011;53294;47.912;13.526;2024-03-22T10:41:33;3.22;;;1.40;;
66478;SDS011;53294;47.912;13.526;2024-03-22T10:43:59;6.03;;;1.50;;
66478;SDS011;53294;47.912;13.526;2024-03-22T10:46:31;4.00;;;1.73;;
66478;SDS011;53294;47.912;13.526;2024-03-22T10:48:57;3.15;;;1.10;;
66478;SDS011;53294;47.912;13.526;2024-03-22T10:51:23;3.72;;;1.27;;
66478;SDS011;53294;47.912;13.526;2024-03-22T10:53:52;1.80;;;1.10;;
66478;SDS011;53294;47.912;13.526;2024-03-22T10:56:20;3.35;;;1.42;;
66478;SDS011;53294;47.912;13.526;2024-03-22T10:58:48;2.70;;;1.25;;
66478;SDS011;53294;47.912;13.526;2024-03-22T11:01:21;2.33;;;1.17;;
66478;SDS011;53294;47.912;13.526;2024-03-22T11:03:48;1.58;;;1.02;;
66478;SDS011;53294;47.912;13.526;2024-03-22T11:06:17;3.13;;;1.83;;
66478;SDS011;53294;47.912;13.526;2024-03-22T11:08:44;3.45;;;1.10;;
66478;SDS011;53294;47.912;13.526;2024-03-22T11:11:17;2.30;;;1.27;;
66478;SDS011;53294;47.912;13.526;2024-03-22T11:13:46;3.15;;;1.40;;
66478;SDS011;53294;47.912;13.526;2024-03-22T11:16:14;2.22;;;1.30;;
66478;SDS011;53294;47.912;13.526;2024-03-22T11:21:06;3.00;;;1.25;;
66478;SDS011;53294;47.912;13.526;2024-03-22T11:23:35;2.65;;;1.65;;
66478;SDS011;53294;47.912;13.526;2024-03-22T11:28:29;3.15;;;1.52;;
66478;SDS011;53294;47.912;13.526;2024-03-22T11:30:58;2.58;;;1.50;;
66478;SDS011;53294;47.912;13.526;2024-03-22T11:33:23;3.20;;;1.42;;
66478;SDS011;53294;47.912;13.526;2024-03-22T11:35:49;3.72;;;1.40;;
66478;SDS011;53294;47.912;13.526;2024-03-22T11:38:15;2.50;;;1.38;;
66478;SDS011;53294;47.912;13.526;2024-03-22T11:40:42;2.65;;;1.30;;
66478;SDS011;53294;47.912;13.526;2024-03-22T11:43:09;3.60;;;1.25;;
66478;SDS011;53294;47.912;13.526;2024-03-22T11:45:39;1.90;;;1.30;;
66478;SDS011;53294;47.912;13.526;2024-03-22T11:50:31;3.63;;;1.50;;
66478;SDS011;53294;47.912;13.526;2024-03-22T11:52:57;4.05;;;1.40;;
66478;SDS011;53294;47.912;13.526;2024-03-22T11:55:26;2.58;;;1.40;;
66478;SDS011;53294;47.912;13.526;2024-03-22T11:57:53;1.60;;;1.10;;
66478;SDS011;53294;47.912;13.526;2024-03-22T12:00:18;2.05;;;1.25;;
66478;SDS011;53294;47.912;13.526;2024-03-22T12:02:45;2.58;;;1.25;;
66478;SDS011;53294;47.912;13.526;2024-03-22T12:05:11;2.20;;;0.98;;
66478;SDS011;53294;47.912;13.526;2024-03-22T12:07:37;1.92;;;1.17;;
66478;SDS011;53294;47.912;13.526;2024-03-22T12:10:03;1.92;;;1.10;;
66478;SDS011;53294;47.912;13.526;2024-03-22T12:12:29;3.47;;;1.40;;
66478;SDS011;53294;47.912;13.526;2024-03-22T12:14:55;2.75;;;1.50;;
66478;SDS011;53294;47.912;13.526;2024-03-22T12:17:21;2.35;;;1.42;;
66478;SDS011;53294;47.912;13.526;2024-03-22T12:19:46;4.82;;;0.90;;
66478;SDS011;53294;47.912;13.526;2024-03-22T12:22:13;4.85;;;1.27;;
66478;SDS011;53294;47.912;13.526;2024-03-22T12:24:38;1.70;;;1.10;;
66478;SDS011;53294;47.912;13.526;2024-03-22T12:27:04;2.15;;;1.40;;
66478;SDS011;53294;47.912;13.526;2024-03-22T12:29:33;1.95;;;1.23;;
66478;SDS011;53294;47.912;13.526;2024-03-22T12:32:00;3.30;;;1.60;;
66478;SDS011;53294;47.912;13.526;2024-03-22T12:34:27;4.18;;;1.15;;
66478;SDS011;53294;47.912;13.526;2024-03-22T12:36:54;2.92;;;1.15;;
66478;SDS011;53294;47.912;13.526;2024-03-22T12:39:20;2.92;;;1.33;;
66478;SDS011;53294;47.912;13.526;2024-03-22T12:41:46;3.15;;;1.33;;
66478;SDS011;53294;47.912;13.526;2024-03-22T12:44:12;4.80;;;1.02;;
66478;SDS011;53294;47.912;13.526;2024-03-22T12:46:38;1.63;;;1.10;;
66478;SDS011;53294;47.912;13.526;2024-03-22T12:49:03;2.58;;;1.42;;
66478;SDS011;53294;47.912;13.526;2024-03-22T12:51:29;2.70;;;1.10;;
66478;SDS011;53294;47.912;13.526;2024-03-22T12:53:55;1.77;;;1.10;;
66478;SDS011;53294;47.912;13.526;2024-03-22T12:56:21;2.28;;;1.33;;
66478;SDS011;53294;47.912;13.526;2024-03-22T12:58:47;2.47;;;1.20;;
66478;SDS011;53294;47.912;13.526;2024-03-22T13:01:13;2.20;;;1.20;;
66478;SDS011;53294;47.912;13.526;2024-03-22T13:03:39;1.70;;;1.00;;
66478;SDS011;53294;47.912;13.526;2024-03-22T13:06:05;3.13;;;1.40;;
66478;SDS011;53294;47.912;13.526;2024-03-22T13:08:31;1.63;;;1.02;;
66478;SDS011;53294;47.912;13.526;2024-03-22T13:13:23;2.15;;;1.02;;
66478;SDS011;53294;47.912;13.526;2024-03-22T13:15:48;2.13;;;1.10;;
66478;SDS011;53294;47.912;13.526;2024-03-22T13:18:14;1.90;;;1.10;;
66478;SDS011;53294;47.912;13.526;2024-03-22T13:20:40;2.25;;;0.90;;
66478;SDS011;53294;47.912;13.526;2024-03-22T13:23:06;4.65;;;1.30;;
66478;SDS011;53294;47.912;13.526;2024-03-22T13:25:36;2.15;;;1.10;;
66478;SDS011;53294;47.912;13.526;2024-03-22T13:28:03;2.67;;;1.25;;
66478;SDS011;53294;47.912;13.526;2024-03-22T13:30:30;3.53;;;1.30;;
66478;SDS011;53294;47.912;13.526;2024-03-22T13:32:57;1.73;;;0.93;;
66478;SDS011;53294;47.912;13.526;2024-03-22T13:35:22;2.13;;;1.25;;
66478;SDS011;53294;47.912;13.526;2024-03-22T13:37:48;1.58;;;1.00;;
66478;SDS011;53294;47.912;13.526;2024-03-22T13:40:14;2.42;;;1.23;;
66478;SDS011;53294;47.912;13.526;2024-03-22T13:42:40;1.45;;;0.90;;
66478;SDS011;53294;47.912;13.526;2024-03-22T13:45:06;1.90;;;1.10;;
66478;SDS011;53294;47.912;13.526;2024-03-22T13:49:58;3.85;;;0.75;;
66478;SDS011;53294;47.912;13.526;2024-03-22T13:52:23;2.17;;;1.00;;
66478;SDS011;53294;47.912;13.526;2024-03-22T13:54:49;4.53;;;0.98;;
66478;SDS011;53294;47.912;13.526;2024-03-22T13:57:15;2.28;;;1.00;;
66478;SDS011;53294;47.912;13.526;2024-03-22T13:59:41;2.22;;;0.85;;
66478;SDS011;53294;47.912;13.526;2024-03-22T14:02:07;2.67;;;1.20;;
66478;SDS011;53294;47.912;13.526;2024-03-22T14:04:35;1.77;;;1.00;;
66478;SDS011;53294;47.912;13.526;2024-03-22T14:07:01;4.70;;;1.30;;
66478;SDS011;53294;47.912;13.526;2024-03-22T14:09:36;1.92;;;1.00;;
66478;SDS011;53294;47.912;13.526;2024-03-22T14:12:02;2.40;;;1.20;;
66478;SDS011;53294;47.912;13.526;2024-03-22T14:14:28;2.72;;;1.20;;
66478;SDS011;53294;47.912;13.526;2024-03-22T14:16:54;3.35;;;1.00;;
66478;SDS011;53294;47.912;13.526;2024-03-22T14:19:20;2.47;;;1.10;;
66478;SDS011;53294;47.912;13.526;2024-03-22T14:21:46;2.13;;;1.17;;
66478;SDS011;53294;47.912;13.526;2024-03-22T14:24:12;3.17;;;1.10;;
66478;SDS011;53294;47.912;13.526;2024-03-22T14:26:38;1.60;;;1.00;;
66478;SDS011;53294;47.912;13.526;2024-03-22T14:29:09;3.00;;;1.10;;
66478;SDS011;53294;47.912;13.526;2024-03-22T14:31:36;2.50;;;0.93;;
66478;SDS011;53294;47.912;13.526;2024-03-22T14:34:02;4.07;;;1.00;;
66478;SDS011;53294;47.912;13.526;2024-03-22T14:36:28;1.98;;;1.10;;
66478;SDS011;53294;47.912;13.526;2024-03-22T14:38:54;2.30;;;1.10;;
66478;SDS011;53294;47.912;13.526;2024-03-22T14:41:20;2.97;;;0.93;;
66478;SDS011;53294;47.912;13.526;2024-03-22T14:43:45;3.15;;;1.20;;
66478;SDS011;53294;47.912;13.526;2024-03-22T14:46:11;2.40;;;0.90;;
66478;SDS011;53294;47.912;13.526;2024-03-22T14:48:37;1.40;;;0.93;;